sensor_id;sensor_type;location;lat;lon;timestamp;temperature;humidity
10873;DHT22;34586;53.616;10.032;2023-02-15T00:00:02;5.30;99.90
10873;DHT22;34586;53.616;10.032;2023-02-15T00:02:28;5.30;99.90
10873;DHT22;34586;53.616;10.032;2023-02-15T00:04:54;5.20;99.90
10873;DHT22;34586;53.616;10.032;2023-02-15T00:07:21;5.30;99.90
10873;DHT22;34586;53.616;10.032;2023-02-15T00:09:47;5.20;99.90
10873;DHT22;34586;53.616;10.032;2023-02-15T00:12:14;5.30;99.90
10873;DHT22;34586;53.616;10.032;2023-02-15T00:14:39;5.30;99.90
10873;DHT22;34586;53.616;10.032;2023-02-15T00:17:05;5.30;99.90
10873;DHT22;34586;53.616;10.032;2023-02-15T00:19:31;5.30;99.90
10873;DHT22;34586;53.616;10.032;2023-02-15T00:21:56;5.30;99.90
10873;DHT22;34586;53.616;10.032;2023-02-15T00:24:22;5.30;99.90
10873;DHT22;34586;53.616;10.032;2023-02-15T00:26:48;5.30;99.90
10873;DHT22;34586;53.616;10.032;2023-02-15T00:29:15;5.30;99.90
10873;DHT22;34586;53.616;10.032;2023-02-15T00:31:41;5.30;99.90
10873;DHT22;34586;53.616;10.032;2023-02-15T00:36:36;5.40;99.90
10873;DHT22;34586;53.616;10.032;2023-02-15T00:39:02;5.40;99.90
10873;DHT22;34586;53.616;10.032;2023-02-15T00:41:30;5.40;99.90
10873;DHT22;34586;53.616;10.032;2023-02-15T00:43:56;5.40;99.90
10873;DHT22;34586;53.616;10.032;2023-02-15T00:46:22;5.40;99.90
10873;DHT22;34586;53.616;10.032;2023-02-15T00:48:47;5.40;99.90
10873;DHT22;34586;53.616;10.032;2023-02-15T00:51:13;5.40;99.90
10873;DHT22;34586;53.616;10.032;2023-02-15T00:53:39;5.40;99.90
10873;DHT22;34586;53.616;10.032;2023-02-15T00:56:04;5.40;99.90
10873;DHT22;34586;53.616;10.032;2023-02-15T00:58:30;5.50;99.90
10873;DHT22;34586;53.616;10.032;2023-02-15T01:01:03;5.40;99.90
10873;DHT22;34586;53.616;10.032;2023-02-15T01:03:29;5.40;99.90
10873;DHT22;34586;53.616;10.032;2023-02-15T01:05:54;5.40;99.90
10873;DHT22;34586;53.616;10.032;2023-02-15T01:08:20;5.40;99.90
10873;DHT22;34586;53.616;10.032;2023-02-15T01:10:45;5.40;99.90
10873;DHT22;34586;53.616;10.032;2023-02-15T01:13:13;5.40;99.90
10873;DHT22;34586;53.616;10.032;2023-02-15T01:15:39;5.40;99.90
10873;DHT22;34586;53.616;10.032;2023-02-15T01:18:05;5.40;99.90
10873;DHT22;34586;53.616;10.032;2023-02-15T01:20:35;5.50;99.90
10873;DHT22;34586;53.616;10.032;2023-02-15T01:23:02;5.40;99.90
10873;DHT22;34586;53.616;10.032;2023-02-15T01:25:27;5.40;99.90
10873;DHT22;34586;53.616;10.032;2023-02-15T01:27:53;5.40;99.90
10873;DHT22;34586;53.616;10.032;2023-02-15T01:30:19;5.50;99.90
10873;DHT22;34586;53.616;10.032;2023-02-15T01:32:44;5.40;99.90
10873;DHT22;34586;53.616;10.032;2023-02-15T01:35:10;5.40;99.90
10873;DHT22;34586;53.616;10.032;2023-02-15T01:37:37;5.50;99.90
10873;DHT22;34586;53.616;10.032;2023-02-15T01:40:05;5.40;99.90
10873;DHT22;34586;53.616;10.032;2023-02-15T01:42:31;5.40;99.90
10873;DHT22;34586;53.616;10.032;2023-02-15T01:44:59;5.50;99.90
10873;DHT22;34586;53.616;10.032;2023-02-15T01:52:28;5.50;99.90
10873;DHT22;34586;53.616;10.032;2023-02-15T01:54:54;5.50;99.90
10873;DHT22;34586;53.616;10.032;2023-02-15T01:57:23;5.50;99.90
10873;DHT22;34586;53.616;10.032;2023-02-15T01:59:52;5.50;99.90
10873;DHT22;34586;53.616;10.032;2023-02-15T02:02:19;5.50;99.90
10873;DHT22;34586;53.616;10.032;2023-02-15T02:04:52;5.40;99.90
10873;DHT22;34586;53.616;10.032;2023-02-15T02:07:43;5.40;99.90
10873;DHT22;34586;53.616;10.032;2023-02-15T02:10:25;5.40;99.90
10873;DHT22;34586;53.616;10.032;2023-02-15T02:12:54;5.50;99.90
10873;DHT22;34586;53.616;10.032;2023-02-15T02:15:27;5.40;99.90
10873;DHT22;34586;53.616;10.032;2023-02-15T02:18:19;5.50;99.90
10873;DHT22;34586;53.616;10.032;2023-02-15T02:30:06;5.50;99.90
10873;DHT22;34586;53.616;10.032;2023-02-15T02:36:16;5.50;99.90
10873;DHT22;34586;53.616;10.032;2023-02-15T02:41:44;5.50;99.90
10873;DHT22;34586;53.616;10.032;2023-02-15T02:49:42;5.40;99.90
10873;DHT22;34586;53.616;10.032;2023-02-15T02:52:38;5.50;99.90
10873;DHT22;34586;53.616;10.032;2023-02-15T02:55:29;5.50;99.90
10873;DHT22;34586;53.616;10.032;2023-02-15T02:58:14;5.50;99.90
10873;DHT22;34586;53.616;10.032;2023-02-15T03:03:50;5.40;99.90
10873;DHT22;34586;53.616;10.032;2023-02-15T03:06:30;5.50;99.90
10873;DHT22;34586;53.616;10.032;2023-02-15T03:09:06;5.40;99.90
10873;DHT22;34586;53.616;10.032;2023-02-15T03:11:33;5.40;99.90
10873;DHT22;34586;53.616;10.032;2023-02-15T03:13:59;5.40;99.90
10873;DHT22;34586;53.616;10.032;2023-02-15T03:16:25;5.40;99.90
10873;DHT22;34586;53.616;10.032;2023-02-15T03:21:42;5.30;99.90
10873;DHT22;34586;53.616;10.032;2023-02-15T03:24:17;5.30;99.90
10873;DHT22;34586;53.616;10.032;2023-02-15T03:26:49;5.40;99.90
10873;DHT22;34586;53.616;10.032;2023-02-15T03:29:17;5.40;99.90
10873;DHT22;34586;53.616;10.032;2023-02-15T03:31:46;5.40;99.90
10873;DHT22;34586;53.616;10.032;2023-02-15T03:34:15;5.40;99.90
10873;DHT22;34586;53.616;10.032;2023-02-15T03:37:05;5.40;99.90
10873;DHT22;34586;53.616;10.032;2023-02-15T03:42:14;5.40;99.90
10873;DHT22;34586;53.616;10.032;2023-02-15T03:44:54;5.40;99.90
10873;DHT22;34586;53.616;10.032;2023-02-15T03:47:27;5.40;99.90
10873;DHT22;34586;53.616;10.032;2023-02-15T03:50:18;5.30;99.90
10873;DHT22;34586;53.616;10.032;2023-02-15T03:53:07;5.30;99.90
10873;DHT22;34586;53.616;10.032;2023-02-15T03:55:34;5.30;99.90
10873;DHT22;34586;53.616;10.032;2023-02-15T03:58:00;5.30;99.90
10873;DHT22;34586;53.616;10.032;2023-02-15T04:00:55;5.30;99.90
10873;DHT22;34586;53.616;10.032;2023-02-15T04:03:51;5.30;99.90
10873;DHT22;34586;53.616;10.032;2023-02-15T04:06:18;5.30;99.90
10873;DHT22;34586;53.616;10.032;2023-02-15T04:08:43;5.30;99.90
10873;DHT22;34586;53.616;10.032;2023-02-15T04:11:27;5.30;99.90
10873;DHT22;34586;53.616;10.032;2023-02-15T04:13:53;5.20;99.90
10873;DHT22;34586;53.616;10.032;2023-02-15T04:16:23;5.20;99.90
10873;DHT22;34586;53.616;10.032;2023-02-15T04:18:48;5.20;99.90
10873;DHT22;34586;53.616;10.032;2023-02-15T04:21:33;5.30;99.90
10873;DHT22;34586;53.616;10.032;2023-02-15T04:24:17;5.30;99.90
10873;DHT22;34586;53.616;10.032;2023-02-15T04:27:03;5.30;99.90
10873;DHT22;34586;53.616;10.032;2023-02-15T04:29:30;5.30;99.90
10873;DHT22;34586;53.616;10.032;2023-02-15T04:32:00;5.30;99.90
10873;DHT22;34586;53.616;10.032;2023-02-15T04:34:26;5.30;99.90
10873;DHT22;34586;53.616;10.032;2023-02-15T04:36:52;5.30;99.90
10873;DHT22;34586;53.616;10.032;2023-02-15T04:39:18;5.30;99.90
10873;DHT22;34586;53.616;10.032;2023-02-15T04:41:44;5.20;99.90
10873;DHT22;34586;53.616;10.032;2023-02-15T04:44:10;5.20;99.90
10873;DHT22;34586;53.616;10.032;2023-02-15T04:46:36;5.30;99.90
10873;DHT22;34586;53.616;10.032;2023-02-15T04:49:01;5.20;99.90
10873;DHT22;34586;53.616;10.032;2023-02-15T04:51:28;5.20;99.90
10873;DHT22;34586;53.616;10.032;2023-02-15T04:53:53;5.20;99.90
10873;DHT22;34586;53.616;10.032;2023-02-15T04:56:19;5.20;99.90
10873;DHT22;34586;53.616;10.032;2023-02-15T04:58:45;5.10;99.90
10873;DHT22;34586;53.616;10.032;2023-02-15T05:01:11;5.20;99.90
10873;DHT22;34586;53.616;10.032;2023-02-15T05:03:37;5.20;99.90
10873;DHT22;34586;53.616;10.032;2023-02-15T05:06:03;5.20;99.90
10873;DHT22;34586;53.616;10.032;2023-02-15T05:08:29;5.10;99.90
10873;DHT22;34586;53.616;10.032;2023-02-15T05:10:56;5.10;99.90
10873;DHT22;34586;53.616;10.032;2023-02-15T05:13:21;5.20;99.90
10873;DHT22;34586;53.616;10.032;2023-02-15T05:15:51;5.20;99.90
10873;DHT22;34586;53.616;10.032;2023-02-15T05:18:18;5.10;99.90
10873;DHT22;34586;53.616;10.032;2023-02-15T05:20:44;5.00;99.90
10873;DHT22;34586;53.616;10.032;2023-02-15T05:23:10;5.00;99.90
10873;DHT22;34586;53.616;10.032;2023-02-15T05:25:36;5.00;99.90
10873;DHT22;34586;53.616;10.032;2023-02-15T05:28:21;5.10;99.90
10873;DHT22;34586;53.616;10.032;2023-02-15T05:31:13;5.10;99.90
10873;DHT22;34586;53.616;10.032;2023-02-15T05:33:38;5.00;99.90
10873;DHT22;34586;53.616;10.032;2023-02-15T05:36:04;5.00;99.90
10873;DHT22;34586;53.616;10.032;2023-02-15T05:38:30;5.00;99.90
10873;DHT22;34586;53.616;10.032;2023-02-15T05:40:56;5.00;99.90
10873;DHT22;34586;53.616;10.032;2023-02-15T05:43:23;5.00;99.90
10873;DHT22;34586;53.616;10.032;2023-02-15T05:45:53;5.00;99.90
10873;DHT22;34586;53.616;10.032;2023-02-15T05:48:21;4.90;99.90
10873;DHT22;34586;53.616;10.032;2023-02-15T05:53:25;4.90;99.90
10873;DHT22;34586;53.616;10.032;2023-02-15T05:55:51;4.80;99.90
10873;DHT22;34586;53.616;10.032;2023-02-15T05:58:16;4.80;99.90
10873;DHT22;34586;53.616;10.032;2023-02-15T06:00:42;4.90;99.90
10873;DHT22;34586;53.616;10.032;2023-02-15T06:03:07;4.90;99.90
10873;DHT22;34586;53.616;10.032;2023-02-15T06:05:33;4.90;99.90
10873;DHT22;34586;53.616;10.032;2023-02-15T06:07:58;4.80;99.90
10873;DHT22;34586;53.616;10.032;2023-02-15T06:10:24;4.90;99.90
10873;DHT22;34586;53.616;10.032;2023-02-15T06:12:49;4.80;99.90
10873;DHT22;34586;53.616;10.032;2023-02-15T06:15:15;4.80;99.90
10873;DHT22;34586;53.616;10.032;2023-02-15T06:17:42;4.80;99.90
10873;DHT22;34586;53.616;10.032;2023-02-15T06:20:08;4.70;99.90
10873;DHT22;34586;53.616;10.032;2023-02-15T06:22:34;4.70;99.90
10873;DHT22;34586;53.616;10.032;2023-02-15T06:25:00;4.80;99.90
10873;DHT22;34586;53.616;10.032;2023-02-15T06:27:25;4.70;99.90
10873;DHT22;34586;53.616;10.032;2023-02-15T06:29:51;4.70;99.90
10873;DHT22;34586;53.616;10.032;2023-02-15T06:32:16;4.70;99.90
10873;DHT22;34586;53.616;10.032;2023-02-15T06:34:42;4.70;99.90
10873;DHT22;34586;53.616;10.032;2023-02-15T06:37:08;4.60;99.90
10873;DHT22;34586;53.616;10.032;2023-02-15T06:39:34;4.60;99.90
10873;DHT22;34586;53.616;10.032;2023-02-15T06:41:59;4.50;99.90
10873;DHT22;34586;53.616;10.032;2023-02-15T06:44:25;4.60;99.90
10873;DHT22;34586;53.616;10.032;2023-02-15T06:46:50;4.50;99.90
10873;DHT22;34586;53.616;10.032;2023-02-15T06:49:16;4.50;99.90
10873;DHT22;34586;53.616;10.032;2023-02-15T06:51:42;4.50;99.90
10873;DHT22;34586;53.616;10.032;2023-02-15T06:54:07;4.50;99.90
10873;DHT22;34586;53.616;10.032;2023-02-15T06:56:33;4.50;99.90
10873;DHT22;34586;53.616;10.032;2023-02-15T06:58:58;4.50;99.90
10873;DHT22;34586;53.616;10.032;2023-02-15T07:01:24;4.60;99.90
10873;DHT22;34586;53.616;10.032;2023-02-15T07:03:50;4.60;99.90
10873;DHT22;34586;53.616;10.032;2023-02-15T07:06:16;4.60;99.90
10873;DHT22;34586;53.616;10.032;2023-02-15T07:08:42;4.60;99.90
10873;DHT22;34586;53.616;10.032;2023-02-15T07:11:08;4.50;99.90
10873;DHT22;34586;53.616;10.032;2023-02-15T07:13:52;4.50;99.90
10873;DHT22;34586;53.616;10.032;2023-02-15T07:16:18;4.40;99.90
10873;DHT22;34586;53.616;10.032;2023-02-15T07:18:44;4.40;99.90
10873;DHT22;34586;53.616;10.032;2023-02-15T07:21:10;4.50;99.90
10873;DHT22;34586;53.616;10.032;2023-02-15T07:23:36;4.50;99.90
10873;DHT22;34586;53.616;10.032;2023-02-15T07:26:03;4.50;99.90
10873;DHT22;34586;53.616;10.032;2023-02-15T07:28:29;4.50;99.90
10873;DHT22;34586;53.616;10.032;2023-02-15T07:30:55;4.60;99.90
10873;DHT22;34586;53.616;10.032;2023-02-15T07:33:20;4.60;99.90
10873;DHT22;34586;53.616;10.032;2023-02-15T07:35:50;4.50;99.90
10873;DHT22;34586;53.616;10.032;2023-02-15T07:38:17;4.60;99.90
10873;DHT22;34586;53.616;10.032;2023-02-15T07:40:44;4.60;99.90
10873;DHT22;34586;53.616;10.032;2023-02-15T07:43:10;4.70;99.90
10873;DHT22;34586;53.616;10.032;2023-02-15T07:45:36;4.70;99.90
10873;DHT22;34586;53.616;10.032;2023-02-15T07:48:02;4.70;99.90
10873;DHT22;34586;53.616;10.032;2023-02-15T07:50:28;4.60;99.90
10873;DHT22;34586;53.616;10.032;2023-02-15T07:52:54;4.70;99.90
10873;DHT22;34586;53.616;10.032;2023-02-15T07:55:19;4.70;99.90
10873;DHT22;34586;53.616;10.032;2023-02-15T07:57:47;4.80;99.90
10873;DHT22;34586;53.616;10.032;2023-02-15T08:00:15;4.80;99.90
10873;DHT22;34586;53.616;10.032;2023-02-15T08:02:42;4.90;99.90
10873;DHT22;34586;53.616;10.032;2023-02-15T08:05:12;4.90;99.90
10873;DHT22;34586;53.616;10.032;2023-02-15T08:07:38;4.90;99.90
10873;DHT22;34586;53.616;10.032;2023-02-15T08:10:04;4.90;99.90
10873;DHT22;34586;53.616;10.032;2023-02-15T08:12:29;4.90;99.90
10873;DHT22;34586;53.616;10.032;2023-02-15T08:14:55;4.90;99.90
10873;DHT22;34586;53.616;10.032;2023-02-15T08:17:21;4.90;99.90
10873;DHT22;34586;53.616;10.032;2023-02-15T08:19:47;4.80;99.90
10873;DHT22;34586;53.616;10.032;2023-02-15T08:22:14;4.80;99.90
10873;DHT22;34586;53.616;10.032;2023-02-15T08:24:40;4.70;99.90
10873;DHT22;34586;53.616;10.032;2023-02-15T08:27:08;4.80;99.90
10873;DHT22;34586;53.616;10.032;2023-02-15T08:29:35;4.80;99.90
10873;DHT22;34586;53.616;10.032;2023-02-15T08:32:04;4.70;99.90
10873;DHT22;34586;53.616;10.032;2023-02-15T08:34:32;4.70;99.90
10873;DHT22;34586;53.616;10.032;2023-02-15T08:36:58;4.60;99.90
10873;DHT22;34586;53.616;10.032;2023-02-15T08:39:24;4.60;99.90
10873;DHT22;34586;53.616;10.032;2023-02-15T08:41:49;4.70;99.90
10873;DHT22;34586;53.616;10.032;2023-02-15T08:44:17;4.50;99.90
10873;DHT22;34586;53.616;10.032;2023-02-15T08:46:44;4.60;99.90
10873;DHT22;34586;53.616;10.032;2023-02-15T08:49:13;4.50;99.90
10873;DHT22;34586;53.616;10.032;2023-02-15T08:51:39;4.60;99.90
10873;DHT22;34586;53.616;10.032;2023-02-15T08:54:11;4.60;99.90
10873;DHT22;34586;53.616;10.032;2023-02-15T08:56:39;4.50;99.90
10873;DHT22;34586;53.616;10.032;2023-02-15T08:59:06;4.60;99.90
10873;DHT22;34586;53.616;10.032;2023-02-15T09:01:33;4.60;99.90
10873;DHT22;34586;53.616;10.032;2023-02-15T09:04:01;4.50;99.90
10873;DHT22;34586;53.616;10.032;2023-02-15T09:06:27;4.50;99.90
10873;DHT22;34586;53.616;10.032;2023-02-15T09:08:54;4.60;99.90
10873;DHT22;34586;53.616;10.032;2023-02-15T09:11:21;4.70;99.90
10873;DHT22;34586;53.616;10.032;2023-02-15T09:13:53;4.80;99.90
10873;DHT22;34586;53.616;10.032;2023-02-15T09:16:20;4.80;99.90
10873;DHT22;34586;53.616;10.032;2023-02-15T09:18:46;5.00;99.90
10873;DHT22;34586;53.616;10.032;2023-02-15T09:21:15;4.90;99.90
10873;DHT22;34586;53.616;10.032;2023-02-15T09:23:45;5.00;99.90
10873;DHT22;34586;53.616;10.032;2023-02-15T09:26:19;5.10;99.90
10873;DHT22;34586;53.616;10.032;2023-02-15T09:28:46;5.20;99.90
10873;DHT22;34586;53.616;10.032;2023-02-15T09:31:13;5.20;99.90
10873;DHT22;34586;53.616;10.032;2023-02-15T09:33:41;5.20;99.90
10873;DHT22;34586;53.616;10.032;2023-02-15T09:36:21;5.20;99.90
10873;DHT22;34586;53.616;10.032;2023-02-15T09:38:52;5.70;99.90
10873;DHT22;34586;53.616;10.032;2023-02-15T09:55:54;5.60;99.90
10873;DHT22;34586;53.616;10.032;2023-02-15T10:14:32;5.60;99.90
10873;DHT22;34586;53.616;10.032;2023-02-15T10:22:41;5.70;99.90
10873;DHT22;34586;53.616;10.032;2023-02-15T10:28:13;5.70;99.90
10873;DHT22;34586;53.616;10.032;2023-02-15T10:30:47;5.70;99.90
10873;DHT22;34586;53.616;10.032;2023-02-15T10:38:42;5.80;99.90
10873;DHT22;34586;53.616;10.032;2023-02-15T10:41:26;5.80;99.90
10873;DHT22;34586;53.616;10.032;2023-02-15T10:47:08;5.80;99.90
10873;DHT22;34586;53.616;10.032;2023-02-15T11:00:40;5.90;99.90
10873;DHT22;34586;53.616;10.032;2023-02-15T11:03:22;5.90;99.90
10873;DHT22;34586;53.616;10.032;2023-02-15T11:08:26;6.10;99.90
10873;DHT22;34586;53.616;10.032;2023-02-15T11:10:58;6.20;99.90
10873;DHT22;34586;53.616;10.032;2023-02-15T11:13:28;6.20;99.90
10873;DHT22;34586;53.616;10.032;2023-02-15T11:16:17;6.30;99.90
10873;DHT22;34586;53.616;10.032;2023-02-15T11:19:00;6.50;99.90
10873;DHT22;34586;53.616;10.032;2023-02-15T11:21:39;6.60;92.30
10873;DHT22;34586;53.616;10.032;2023-02-15T11:24:14;6.60;99.90
10873;DHT22;34586;53.616;10.032;2023-02-15T11:26:44;6.60;77.60
10873;DHT22;34586;53.616;10.032;2023-02-15T11:31:46;6.80;71.20
10873;DHT22;34586;53.616;10.032;2023-02-15T11:34:22;6.80;14.20
10873;DHT22;34586;53.616;10.032;2023-02-15T11:36:51;6.80;58.10
10873;DHT22;34586;53.616;10.032;2023-02-15T11:39:18;6.80;21.20
10873;DHT22;34586;53.616;10.032;2023-02-15T11:41:53;6.70;64.30
10873;DHT22;34586;53.616;10.032;2023-02-15T11:44:37;6.70;63.70
10873;DHT22;34586;53.616;10.032;2023-02-15T11:47:10;6.70;91.60
10873;DHT22;34586;53.616;10.032;2023-02-15T11:49:36;6.90;99.90
10873;DHT22;34586;53.616;10.032;2023-02-15T11:52:06;7.00;60.10
10873;DHT22;34586;53.616;10.032;2023-02-15T11:54:39;7.10;33.90
10873;DHT22;34586;53.616;10.032;2023-02-15T11:57:19;7.10;1.00
10873;DHT22;34586;53.616;10.032;2023-02-15T11:59:51;7.00;14.20
10873;DHT22;34586;53.616;10.032;2023-02-15T12:02:21;7.00;45.20
10873;DHT22;34586;53.616;10.032;2023-02-15T12:04:54;7.00;56.10
10873;DHT22;34586;53.616;10.032;2023-02-15T12:07:28;7.00;94.90
10873;DHT22;34586;53.616;10.032;2023-02-15T12:10:03;7.00;53.00
10873;DHT22;34586;53.616;10.032;2023-02-15T12:12:33;7.00;47.70
10873;DHT22;34586;53.616;10.032;2023-02-15T12:15:05;7.10;89.10
10873;DHT22;34586;53.616;10.032;2023-02-15T12:20:29;7.00;15.90
10873;DHT22;34586;53.616;10.032;2023-02-15T12:23:12;7.00;68.20
10873;DHT22;34586;53.616;10.032;2023-02-15T12:25:53;7.10;39.70
10873;DHT22;34586;53.616;10.032;2023-02-15T12:30:52;7.30;22.50
10873;DHT22;34586;53.616;10.032;2023-02-15T12:33:52;7.50;16.40
10873;DHT22;34586;53.616;10.032;2023-02-15T12:36:22;7.50;7.10
10873;DHT22;34586;53.616;10.032;2023-02-15T12:42:03;7.80;1.00
10873;DHT22;34586;53.616;10.032;2023-02-15T12:44:32;8.40;1.00
10873;DHT22;34586;53.616;10.032;2023-02-15T12:49:32;8.80;1.00
10873;DHT22;34586;53.616;10.032;2023-02-15T12:54:43;8.80;99.90
10873;DHT22;34586;53.616;10.032;2023-02-15T12:57:21;8.80;1.00
10873;DHT22;34586;53.616;10.032;2023-02-15T12:59:56;8.90;1.00
10873;DHT22;34586;53.616;10.032;2023-02-15T13:02:33;9.00;1.00
10873;DHT22;34586;53.616;10.032;2023-02-15T13:05:51;9.10;99.90
10873;DHT22;34586;53.616;10.032;2023-02-15T13:08:02;9.30;1.00
10873;DHT22;34586;53.616;10.032;2023-02-15T13:10:33;9.80;12.70
10873;DHT22;34586;53.616;10.032;2023-02-15T13:12:59;10.00;99.90
10873;DHT22;34586;53.616;10.032;2023-02-15T13:15:35;9.80;1.00
10873;DHT22;34586;53.616;10.032;2023-02-15T13:18:02;10.10;99.90
10873;DHT22;34586;53.616;10.032;2023-02-15T13:20:29;10.10;99.90
10873;DHT22;34586;53.616;10.032;2023-02-15T13:23:01;10.00;99.90
10873;DHT22;34586;53.616;10.032;2023-02-15T13:25:34;9.90;99.90
10873;DHT22;34586;53.616;10.032;2023-02-15T13:28:06;9.90;1.00
10873;DHT22;34586;53.616;10.032;2023-02-15T13:30:38;9.60;99.90
10873;DHT22;34586;53.616;10.032;2023-02-15T13:33:31;9.60;99.90
10873;DHT22;34586;53.616;10.032;2023-02-15T13:36:16;9.50;1.00
10873;DHT22;34586;53.616;10.032;2023-02-15T13:39:21;9.60;1.00
10873;DHT22;34586;53.616;10.032;2023-02-15T13:50:05;9.60;1.00
10873;DHT22;34586;53.616;10.032;2023-02-15T13:52:42;9.50;1.00
10873;DHT22;34586;53.616;10.032;2023-02-15T14:00:44;9.40;1.00
10873;DHT22;34586;53.616;10.032;2023-02-15T14:11:27;9.30;99.90
10873;DHT22;34586;53.616;10.032;2023-02-15T14:14:11;9.40;1.00
10873;DHT22;34586;53.616;10.032;2023-02-15T14:17:03;9.50;1.00
10873;DHT22;34586;53.616;10.032;2023-02-15T14:19:45;9.60;1.00
10873;DHT22;34586;53.616;10.032;2023-02-15T14:30:29;9.30;99.90
10873;DHT22;34586;53.616;10.032;2023-02-15T14:35:44;9.30;99.90
10873;DHT22;34586;53.616;10.032;2023-02-15T14:44:05;9.00;99.90
10873;DHT22;34586;53.616;10.032;2023-02-15T14:49:12;8.90;1.00
10873;DHT22;34586;53.616;10.032;2023-02-15T14:51:54;8.80;1.00
10873;DHT22;34586;53.616;10.032;2023-02-15T15:02:40;8.70;1.00
10873;DHT22;34586;53.616;10.032;2023-02-15T15:05:24;8.60;1.00
10873;DHT22;34586;53.616;10.032;2023-02-15T15:07:56;8.60;1.00
10873;DHT22;34586;53.616;10.032;2023-02-15T15:15:45;8.70;1.00
10873;DHT22;34586;53.616;10.032;2023-02-15T15:18:44;8.70;1.00
10873;DHT22;34586;53.616;10.032;2023-02-15T15:21:10;8.70;1.00
10873;DHT22;34586;53.616;10.032;2023-02-15T15:23:42;8.60;1.00
10873;DHT22;34586;53.616;10.032;2023-02-15T15:50:19;8.20;18.60
10873;DHT22;34586;53.616;10.032;2023-02-15T15:52:51;8.00;50.20
10873;DHT22;34586;53.616;10.032;2023-02-15T15:55:20;8.00;78.40
10873;DHT22;34586;53.616;10.032;2023-02-15T15:57:50;7.90;77.30
10873;DHT22;34586;53.616;10.032;2023-02-15T16:00:43;7.90;90.50
10873;DHT22;34586;53.616;10.032;2023-02-15T16:03:22;7.80;92.90
10873;DHT22;34586;53.616;10.032;2023-02-15T16:05:48;7.70;95.40
10873;DHT22;34586;53.616;10.032;2023-02-15T16:08:35;7.60;99.90
10873;DHT22;34586;53.616;10.032;2023-02-15T16:11:15;7.60;99.90
10873;DHT22;34586;53.616;10.032;2023-02-15T16:13:42;7.50;99.90
10873;DHT22;34586;53.616;10.032;2023-02-15T16:16:11;7.40;99.90
10873;DHT22;34586;53.616;10.032;2023-02-15T16:18:38;7.30;99.90
10873;DHT22;34586;53.616;10.032;2023-02-15T16:21:21;7.20;99.90
10873;DHT22;34586;53.616;10.032;2023-02-15T16:24:11;7.20;99.90
10873;DHT22;34586;53.616;10.032;2023-02-15T16:29:28;7.10;99.90
10873;DHT22;34586;53.616;10.032;2023-02-15T16:32:03;7.10;99.90
10873;DHT22;34586;53.616;10.032;2023-02-15T16:34:29;7.00;99.90
10873;DHT22;34586;53.616;10.032;2023-02-15T16:37:17;6.90;99.90
10873;DHT22;34586;53.616;10.032;2023-02-15T16:39:44;6.90;99.90
10873;DHT22;34586;53.616;10.032;2023-02-15T16:42:11;6.80;99.90
10873;DHT22;34586;53.616;10.032;2023-02-15T16:44:39;6.80;99.90
10873;DHT22;34586;53.616;10.032;2023-02-15T16:47:12;6.70;99.90
10873;DHT22;34586;53.616;10.032;2023-02-15T16:49:44;6.80;99.90
10873;DHT22;34586;53.616;10.032;2023-02-15T16:52:23;6.70;99.90
10873;DHT22;34586;53.616;10.032;2023-02-15T16:55:38;6.60;99.90
10873;DHT22;34586;53.616;10.032;2023-02-15T16:57:43;6.50;99.90
10873;DHT22;34586;53.616;10.032;2023-02-15T17:00:19;6.50;99.90
10873;DHT22;34586;53.616;10.032;2023-02-15T17:03:06;6.40;99.90
10873;DHT22;34586;53.616;10.032;2023-02-15T17:08:30;6.40;99.90
10873;DHT22;34586;53.616;10.032;2023-02-15T17:13:26;6.30;99.90
10873;DHT22;34586;53.616;10.032;2023-02-15T17:18:40;6.20;99.90
10873;DHT22;34586;53.616;10.032;2023-02-15T17:21:13;6.20;99.90
10873;DHT22;34586;53.616;10.032;2023-02-15T17:23:44;6.20;99.90
10873;DHT22;34586;53.616;10.032;2023-02-15T17:28:45;6.20;99.90
10873;DHT22;34586;53.616;10.032;2023-02-15T17:31:14;6.10;99.90
10873;DHT22;34586;53.616;10.032;2023-02-15T17:33:41;6.00;99.90
10873;DHT22;34586;53.616;10.032;2023-02-15T17:36:17;6.00;99.90
10873;DHT22;34586;53.616;10.032;2023-02-15T17:39:18;6.00;99.90
10873;DHT22;34586;53.616;10.032;2023-02-15T17:41:44;6.00;99.90
10873;DHT22;34586;53.616;10.032;2023-02-15T17:44:09;5.90;99.90
10873;DHT22;34586;53.616;10.032;2023-02-15T17:46:40;5.90;99.90
10873;DHT22;34586;53.616;10.032;2023-02-15T17:49:06;5.90;99.90
10873;DHT22;34586;53.616;10.032;2023-02-15T17:51:32;5.90;99.90
10873;DHT22;34586;53.616;10.032;2023-02-15T17:54:01;5.90;99.90
10873;DHT22;34586;53.616;10.032;2023-02-15T17:56:45;5.90;99.90
10873;DHT22;34586;53.616;10.032;2023-02-15T17:59:11;5.80;99.90
10873;DHT22;34586;53.616;10.032;2023-02-15T18:01:45;5.80;99.90
10873;DHT22;34586;53.616;10.032;2023-02-15T18:04:32;5.80;99.90
10873;DHT22;34586;53.616;10.032;2023-02-15T18:07:17;5.80;99.90
10873;DHT22;34586;53.616;10.032;2023-02-15T18:10:14;5.70;99.90
10873;DHT22;34586;53.616;10.032;2023-02-15T18:12:58;5.70;99.90
10873;DHT22;34586;53.616;10.032;2023-02-15T18:15:24;5.60;99.90
10873;DHT22;34586;53.616;10.032;2023-02-15T18:17:50;5.60;99.90
10873;DHT22;34586;53.616;10.032;2023-02-15T18:20:25;5.60;99.90
10873;DHT22;34586;53.616;10.032;2023-02-15T18:22:53;5.60;99.90
10873;DHT22;34586;53.616;10.032;2023-02-15T18:25:21;5.60;99.90
10873;DHT22;34586;53.616;10.032;2023-02-15T18:27:48;5.60;99.90
10873;DHT22;34586;53.616;10.032;2023-02-15T18:30:23;5.60;99.90
10873;DHT22;34586;53.616;10.032;2023-02-15T18:32:54;5.60;99.90
10873;DHT22;34586;53.616;10.032;2023-02-15T18:35:23;5.60;99.90
10873;DHT22;34586;53.616;10.032;2023-02-15T18:37:51;5.50;99.90
10873;DHT22;34586;53.616;10.032;2023-02-15T18:40:22;5.50;99.90
10873;DHT22;34586;53.616;10.032;2023-02-15T18:42:49;5.50;99.90
10873;DHT22;34586;53.616;10.032;2023-02-15T18:45:26;5.50;99.90
10873;DHT22;34586;53.616;10.032;2023-02-15T18:47:56;5.40;99.90
10873;DHT22;34586;53.616;10.032;2023-02-15T18:50:24;5.40;99.90
10873;DHT22;34586;53.616;10.032;2023-02-15T18:52:51;5.40;99.90
10873;DHT22;34586;53.616;10.032;2023-02-15T18:55:22;5.40;99.90
10873;DHT22;34586;53.616;10.032;2023-02-15T18:57:49;5.40;99.90
10873;DHT22;34586;53.616;10.032;2023-02-15T19:00:30;5.40;99.90
10873;DHT22;34586;53.616;10.032;2023-02-15T19:03:00;5.30;99.90
10873;DHT22;34586;53.616;10.032;2023-02-15T19:05:27;5.30;99.90
10873;DHT22;34586;53.616;10.032;2023-02-15T19:07:54;5.30;99.90
10873;DHT22;34586;53.616;10.032;2023-02-15T19:10:23;5.30;99.90
10873;DHT22;34586;53.616;10.032;2023-02-15T19:12:50;5.30;99.90
10873;DHT22;34586;53.616;10.032;2023-02-15T19:15:19;5.20;99.90
10873;DHT22;34586;53.616;10.032;2023-02-15T19:17:45;5.30;99.90
10873;DHT22;34586;53.616;10.032;2023-02-15T19:20:22;5.20;99.90
10873;DHT22;34586;53.616;10.032;2023-02-15T19:22:50;5.20;99.90
10873;DHT22;34586;53.616;10.032;2023-02-15T19:25:20;5.30;99.90